This is the latest recevied weather packets stored in our database for station/object VA2DG-13. If no packets are shown the sender has not sent any weather packets the latest 10 day(s).
| Time | Temp. | Humidity | Pressure | Rain* | Wind** | Luminosity | Snow |
|---|---|---|---|---|---|---|---|
| 1777062611 | 11.67° C | 33% | 1011.4 hPa | 0 mm | - | - | - |
| 1777061710 | 11.11° C | 32% | 1011.4 hPa | 0 mm | - | - | - |
| 1777061410 | 11.11° C | 32% | 1011.3 hPa | 0 mm | - | - | - |
| 1777060810 | 11.67° C | 32% | 1011.4 hPa | 0 mm | - | - | - |
| 1777060510 | 11.67° C | 31% | 1011.3 hPa | 0 mm | - | - | - |
| 1777059910 | 11.11° C | 32% | 1011.2 hPa | 0 mm | - | - | - |
| 1777057811 | 11.11° C | 31% | 1011.2 hPa | 0 mm | - | - | - |
| 1777055710 | 11.11° C | 31% | 1011.1 hPa | 0 mm | - | - | - |
| 1777055411 | 11.11° C | 31% | 1011 hPa | 0 mm | - | - | - |
| 1777055110 | 10.56° C | 31% | 1011.1 hPa | 0 mm | - | - | - |
| 1777054510 | 11.11° C | 30% | 1010.9 hPa | 0 mm | - | - | - |
| 1777050310 | 10.56° C | 29% | 1011.2 hPa | 0 mm | - | - | - |
| 1777049110 | 10° C | 29% | 1011.2 hPa | 0 mm | - | - | - |
| 1777044611 | 8.33° C | 39% | 1011.7 hPa | 0 mm | - | - | - |
| 1777044010 | 8.33° C | 39% | 1011.9 hPa | 0 mm | - | - | - |
| 1777043410 | 8.33° C | 41% | 1012.1 hPa | 0 mm | - | - | - |
| 1777041910 | 7.78° C | 42% | 1012.1 hPa | 0 mm | - | - | - |
| 1777037710 | 6.67° C | 45% | 1012.5 hPa | 0 mm | - | - | - |
| 1777036510 | 6.11° C | 47% | 1012.8 hPa | 0 mm | - | - | - |
| 1777034110 | 5° C | 48% | 1012.7 hPa | 0 mm | - | - | - |
| 1777033210 | 4.44° C | 50% | 1012.7 hPa | 0 mm | - | - | - |
| 1777028110 | -0.56° C | 66% | 1012.8 hPa | 0 mm | - | - | - |
| 1777023310 | -0.56° C | 62% | 1012.6 hPa | 0 mm | - | - | - |
| 1777020310 | 0.56° C | 57% | 1012.6 hPa | 0 mm | - | - | - |
| 1777016710 | -1.11° C | 59% | 1012.2 hPa | 0 mm | - | - | - |
* Rain latest hour (hover to see other rain measurements)
** Current wind speed in m/s (hover to see current wind gust speed)